createdAt,value
2017-10-05T00:00:03.783Z,98.42
2017-10-05T00:00:44.364Z,98.22
2017-10-05T00:01:24.953Z,98.7
2017-10-05T00:02:05.529Z,98.99
2017-10-05T00:02:46.106Z,98.9
2017-10-05T00:03:26.686Z,98.61
2017-10-05T00:04:07.269Z,98.9
2017-10-05T00:04:47.853Z,98.99
2017-10-05T00:05:28.433Z,98.8
2017-10-05T00:06:09.013Z,98.8
2017-10-05T00:06:49.595Z,98.9
2017-10-05T00:07:30.175Z,99.75
2017-10-05T00:08:10.777Z,99.56
2017-10-05T00:08:51.345Z,99.46
2017-10-05T00:09:31.927Z,99.56
2017-10-05T00:10:12.505Z,99.99
2017-10-05T00:10:53.077Z,99.99
2017-10-05T00:11:33.674Z,99.99
2017-10-05T00:12:14.252Z,99.99
2017-10-05T00:12:54.834Z,99.99
2017-10-05T00:13:35.421Z,99.99
2017-10-05T00:14:15.992Z,99.99
2017-10-05T00:14:56.581Z,99.99
2017-10-05T00:15:37.156Z,99.95
2017-10-05T00:16:17.742Z,99.99
2017-10-05T00:16:58.323Z,99.89
2017-10-05T00:17:38.899Z,99.66
2017-10-05T00:18:19.474Z,99.56
2017-10-05T00:19:00.047Z,99.99
2017-10-05T00:19:40.628Z,99.99
2017-10-05T00:20:21.204Z,99.99
2017-10-05T00:21:01.789Z,99.99
2017-10-05T00:21:42.367Z,99.99
2017-10-05T00:22:22.929Z,99.99
2017-10-05T00:23:03.512Z,99.99
2017-10-05T00:23:44.090Z,99.99
2017-10-05T00:24:24.676Z,99.99
2017-10-05T00:25:05.247Z,99.99
2017-10-05T00:25:45.832Z,99.99
2017-10-05T00:26:26.410Z,99.99
2017-10-05T00:27:06.989Z,99.99
2017-10-05T00:27:47.575Z,99.99
2017-10-05T00:28:28.149Z,99.99
2017-10-05T00:29:08.725Z,99.99
2017-10-05T00:31:21.569Z,99.99
2017-10-05T00:32:02.152Z,99.99
2017-10-05T00:32:42.729Z,99.99
2017-10-05T00:33:23.306Z,99.99
2017-10-05T00:34:03.893Z,99.99
2017-10-05T00:34:44.457Z,99.99
2017-10-05T00:35:25.028Z,99.99
2017-10-05T00:36:05.615Z,99.99
2017-10-05T00:36:46.183Z,99.99
2017-10-05T00:37:26.763Z,99.99
2017-10-05T00:38:07.351Z,99.99
2017-10-05T00:38:47.933Z,99.99
2017-10-05T00:39:28.506Z,99.99
2017-10-05T00:40:09.083Z,99.99
2017-10-05T00:40:49.662Z,99.99
2017-10-05T00:41:30.230Z,99.99
2017-10-05T00:42:10.816Z,99.99
2017-10-05T00:42:51.396Z,99.99
2017-10-05T00:43:31.973Z,99.99
2017-10-05T00:44:12.550Z,99.99
2017-10-05T00:44:53.131Z,99.99
2017-10-05T00:45:33.711Z,99.99
2017-10-05T00:46:14.292Z,99.99
2017-10-05T00:46:54.875Z,99.99
2017-10-05T00:47:35.464Z,99.99
2017-10-05T00:48:16.039Z,99.99
2017-10-05T00:48:56.625Z,99.99
2017-10-05T00:49:37.190Z,99.99
2017-10-05T00:50:17.771Z,99.99
2017-10-05T00:50:58.350Z,99.99
2017-10-05T00:51:38.931Z,99.99
2017-10-05T00:52:19.508Z,99.99
2017-10-05T00:53:00.092Z,99.99
2017-10-05T00:53:40.671Z,99.99
2017-10-05T00:54:21.251Z,99.99
2017-10-05T00:55:01.825Z,99.99
2017-10-05T00:55:42.414Z,99.99
2017-10-05T00:56:22.993Z,99.99
2017-10-05T00:57:03.563Z,99.99
2017-10-05T00:57:44.133Z,99.99
2017-10-05T00:58:24.714Z,99.99
2017-10-05T00:59:05.289Z,99.99
2017-10-05T00:59:45.873Z,99.99
2017-10-05T01:00:26.447Z,99.99
2017-10-05T01:01:07.032Z,99.99
2017-10-05T01:01:47.617Z,99.99
2017-10-05T01:02:28.199Z,99.99
2017-10-05T01:03:08.779Z,99.99
2017-10-05T01:03:49.375Z,99.99
2017-10-05T01:04:29.950Z,99.99
2017-10-05T01:05:10.522Z,99.99
2017-10-05T01:05:51.103Z,99.99
2017-10-05T01:06:31.683Z,99.99
2017-10-05T01:07:12.264Z,99.99
2017-10-05T01:07:52.842Z,99.99
2017-10-05T01:08:33.416Z,99.99
2017-10-05T01:09:13.998Z,99.99
2017-10-05T01:09:54.569Z,99.99
2017-10-05T01:10:35.152Z,99.99
2017-10-05T01:11:15.722Z,99.99
2017-10-05T01:11:56.306Z,99.99
2017-10-05T01:12:36.893Z,99.99
2017-10-05T01:13:17.471Z,99.99
2017-10-05T01:13:58.053Z,99.99
2017-10-05T01:14:38.638Z,99.99
2017-10-05T01:15:19.216Z,99.99
2017-10-05T01:15:59.796Z,99.99
2017-10-05T01:16:40.385Z,99.99
2017-10-05T01:17:20.955Z,99.99
2017-10-05T01:18:01.545Z,99.99
2017-10-05T01:18:42.125Z,99.99
2017-10-05T01:19:22.706Z,99.99
2017-10-05T01:20:18.211Z,99.99
2017-10-05T01:20:58.788Z,99.99
2017-10-05T01:21:39.368Z,99.99
2017-10-05T01:22:19.932Z,99.99
2017-10-05T01:23:00.522Z,99.99
2017-10-05T01:23:41.099Z,99.99
2017-10-05T01:24:21.671Z,99.99
2017-10-05T01:25:02.249Z,99.99
2017-10-05T01:25:42.830Z,99.99
2017-10-05T01:26:23.415Z,99.99
2017-10-05T01:27:03.989Z,99.99
2017-10-05T01:27:44.575Z,99.99
2017-10-05T01:28:25.156Z,99.99
2017-10-05T01:29:05.729Z,99.99
2017-10-05T01:29:46.311Z,99.99
2017-10-05T01:30:26.895Z,99.99
2017-10-05T01:31:07.481Z,99.99
2017-10-05T01:31:48.054Z,99.99
2017-10-05T01:32:28.635Z,99.99
2017-10-05T01:33:09.245Z,99.99
2017-10-05T01:33:49.808Z,99.99
2017-10-05T01:34:30.380Z,99.99
2017-10-05T01:35:10.958Z,99.99
2017-10-05T01:35:51.536Z,99.99
2017-10-05T01:36:32.119Z,99.99
2017-10-05T01:37:12.699Z,99.99
2017-10-05T01:37:53.279Z,99.99
2017-10-05T01:38:33.859Z,99.99
2017-10-05T01:39:14.442Z,99.99
2017-10-05T01:39:55.021Z,99.99
2017-10-05T01:40:35.602Z,99.99
2017-10-05T01:41:16.181Z,99.99
2017-10-05T01:41:56.750Z,99.99
2017-10-05T01:42:37.333Z,99.99
2017-10-05T01:43:17.914Z,99.99
2017-10-05T01:43:58.499Z,99.99
2017-10-05T01:44:39.077Z,99.99
2017-10-05T01:45:19.661Z,99.99
2017-10-05T01:46:00.233Z,99.99
2017-10-05T01:46:40.816Z,99.99
2017-10-05T01:47:21.389Z,99.99
2017-10-05T01:48:01.994Z,99.99
2017-10-05T01:48:42.565Z,99.99
2017-10-05T01:49:23.158Z,99.99
2017-10-05T01:50:03.733Z,99.99
2017-10-05T01:50:44.324Z,99.99
2017-10-05T01:51:24.903Z,99.99
2017-10-05T01:52:05.485Z,99.99
2017-10-05T01:52:46.064Z,99.99
2017-10-05T01:53:26.632Z,99.99
2017-10-05T01:54:07.224Z,99.99
2017-10-05T01:54:47.802Z,99.99
2017-10-05T01:55:28.389Z,99.99
2017-10-05T01:56:08.967Z,99.99
2017-10-05T01:56:49.537Z,99.99
2017-10-05T01:57:30.119Z,99.99
2017-10-05T01:58:10.701Z,99.99
2017-10-05T01:58:51.282Z,99.99
2017-10-05T01:59:31.860Z,99.99
2017-10-05T02:00:12.449Z,99.99
2017-10-05T02:00:53.023Z,99.99
2017-10-05T02:01:33.604Z,99.99
2017-10-05T02:02:14.187Z,99.99
2017-10-05T02:02:54.768Z,99.99
2017-10-05T02:03:35.360Z,99.99
2017-10-05T02:04:15.937Z,99.99
2017-10-05T02:04:56.514Z,99.99
2017-10-05T02:05:37.101Z,99.99
2017-10-05T02:06:17.676Z,99.99
2017-10-05T02:06:58.252Z,99.99
2017-10-05T02:07:38.828Z,99.99
2017-10-05T02:08:19.414Z,99.99
2017-10-05T02:08:59.995Z,99.99
2017-10-05T02:09:40.577Z,99.99
2017-10-05T02:10:21.184Z,99.99
2017-10-05T02:11:01.741Z,99.99
2017-10-05T02:11:42.325Z,99.99
2017-10-05T02:12:22.903Z,99.99
2017-10-05T02:13:03.471Z,99.99
2017-10-05T02:13:44.051Z,99.99
2017-10-05T02:14:24.630Z,99.99
2017-10-05T02:15:05.199Z,99.99
2017-10-05T02:15:45.759Z,99.99
2017-10-05T02:16:26.342Z,99.99
2017-10-05T02:17:06.914Z,99.99
2017-10-05T02:17:47.484Z,99.99
2017-10-05T02:18:28.054Z,99.99
2017-10-05T02:19:08.622Z,99.99
2017-10-05T02:19:49.209Z,99.99
2017-10-05T02:20:29.783Z,99.99
2017-10-05T02:21:10.368Z,99.99
2017-10-05T02:21:50.948Z,99.99
2017-10-05T02:22:31.515Z,99.99
2017-10-05T02:23:12.095Z,99.99
2017-10-05T02:23:52.698Z,99.99
2017-10-05T02:24:33.259Z,99.99
2017-10-05T02:25:13.837Z,99.99
2017-10-05T02:25:54.416Z,99.99
2017-10-05T02:26:34.989Z,99.99
2017-10-05T02:27:15.575Z,99.99
2017-10-05T02:27:56.154Z,99.99
2017-10-05T02:28:36.730Z,99.99
2017-10-05T02:29:17.301Z,99.99
2017-10-05T02:29:57.883Z,99.99
2017-10-05T02:30:38.466Z,99.99
2017-10-05T02:31:19.041Z,99.99
2017-10-05T02:31:59.631Z,99.99
2017-10-05T02:32:40.200Z,99.99
2017-10-05T02:33:20.781Z,99.99
2017-10-05T02:34:01.361Z,99.99
2017-10-05T02:34:41.940Z,99.99
2017-10-05T02:35:22.529Z,99.99
2017-10-05T02:36:03.099Z,99.99
2017-10-05T02:36:43.685Z,99.99
2017-10-05T02:37:24.270Z,99.99
2017-10-05T02:38:04.842Z,99.99
2017-10-05T02:38:45.418Z,99.99
2017-10-05T02:39:25.995Z,99.99
2017-10-05T02:40:06.578Z,99.99
2017-10-05T02:40:47.161Z,99.99
2017-10-05T02:41:27.745Z,99.99
2017-10-05T02:42:08.310Z,99.99
2017-10-05T02:42:48.886Z,99.99
2017-10-05T02:43:29.461Z,99.99
2017-10-05T02:44:10.062Z,99.99
2017-10-05T02:44:50.627Z,99.99
2017-10-05T02:45:31.211Z,99.99
2017-10-05T02:46:11.785Z,99.99
2017-10-05T02:46:52.357Z,99.99
2017-10-05T02:47:32.937Z,99.99
2017-10-05T02:48:13.524Z,99.99
2017-10-05T02:48:54.107Z,99.99
2017-10-05T02:49:34.692Z,99.99
2017-10-05T02:50:31.051Z,99.99
2017-10-05T02:51:11.631Z,99.99
2017-10-05T02:51:52.213Z,99.99
2017-10-05T02:52:32.795Z,99.99
2017-10-05T02:53:13.379Z,99.99
2017-10-05T02:53:54.112Z,99.99
2017-10-05T02:54:34.671Z,99.99
2017-10-05T02:55:15.257Z,99.99
2017-10-05T02:55:55.834Z,99.99
2017-10-05T02:56:36.426Z,99.99
2017-10-05T02:57:17.001Z,99.99
2017-10-05T02:57:57.592Z,99.99
2017-10-05T02:58:38.175Z,99.99
2017-10-05T02:59:18.754Z,99.99
2017-10-05T02:59:59.340Z,99.99
2017-10-05T03:00:39.926Z,99.99
2017-10-05T03:01:20.507Z,99.99
2017-10-05T03:02:01.085Z,99.99
2017-10-05T03:02:41.675Z,99.99
2017-10-05T03:03:22.240Z,99.99
2017-10-05T03:04:02.821Z,99.99
2017-10-05T03:04:43.405Z,99.99
2017-10-05T03:05:23.976Z,99.99
2017-10-05T03:06:04.554Z,99.99
2017-10-05T03:06:45.131Z,99.99
2017-10-05T03:07:25.716Z,99.99
2017-10-05T03:08:06.282Z,99.99
2017-10-05T03:08:46.873Z,99.99
2017-10-05T03:09:27.441Z,99.99
2017-10-05T03:10:08.020Z,99.99
2017-10-05T03:10:48.591Z,99.99
2017-10-05T03:11:29.158Z,99.99
2017-10-05T03:12:09.727Z,99.99
2017-10-05T03:12:50.308Z,99.99
2017-10-05T03:13:30.861Z,99.99
2017-10-05T03:14:26.335Z,99.99
2017-10-05T03:15:07.056Z,99.99
2017-10-05T03:15:47.713Z,99.99
2017-10-05T03:16:28.295Z,99.99
2017-10-05T03:17:08.883Z,99.99
2017-10-05T03:17:49.485Z,99.99
2017-10-05T03:18:30.062Z,99.99
2017-10-05T03:19:10.634Z,99.99
2017-10-05T03:19:51.219Z,99.99
2017-10-05T03:20:31.797Z,99.99
2017-10-05T03:21:12.361Z,99.99
2017-10-05T03:21:52.941Z,99.99
2017-10-05T03:22:33.522Z,99.99
2017-10-05T03:23:14.100Z,99.99
2017-10-05T03:23:54.672Z,99.99
2017-10-05T03:24:35.251Z,99.99
2017-10-05T03:25:15.832Z,99.99
2017-10-05T03:25:56.410Z,99.99
2017-10-05T03:26:43.551Z,99.99
2017-10-05T03:27:24.126Z,99.99
2017-10-05T03:28:04.713Z,99.99
2017-10-05T03:28:45.290Z,99.99
2017-10-05T03:29:25.865Z,99.99
2017-10-05T03:30:06.452Z,99.99
2017-10-05T03:30:47.025Z,99.99
2017-10-05T03:31:27.611Z,99.99
2017-10-05T03:32:08.186Z,99.99
2017-10-05T03:32:48.766Z,99.99
2017-10-05T03:33:29.351Z,99.99
2017-10-05T03:34:09.935Z,99.99
2017-10-05T03:34:50.501Z,99.99
2017-10-05T03:35:31.082Z,99.99
2017-10-05T03:36:11.654Z,99.99
2017-10-05T03:36:52.245Z,99.99
2017-10-05T03:37:32.823Z,99.99
2017-10-05T03:38:13.409Z,99.99
2017-10-05T03:38:53.982Z,99.99
2017-10-05T03:39:34.564Z,99.99
2017-10-05T03:40:15.140Z,99.99
2017-10-05T03:40:55.719Z,99.99
2017-10-05T03:41:36.300Z,99.99
2017-10-05T03:42:16.875Z,99.99
2017-10-05T03:42:57.456Z,99.99
2017-10-05T03:43:38.037Z,99.99
2017-10-05T03:44:18.620Z,99.99
2017-10-05T03:44:59.203Z,99.99
2017-10-05T03:45:39.782Z,99.99
2017-10-05T03:46:20.358Z,99.99
2017-10-05T03:47:00.948Z,99.99
2017-10-05T03:47:56.450Z,99.99
2017-10-05T03:48:37.027Z,99.99
2017-10-05T03:49:17.612Z,99.99
2017-10-05T03:49:58.199Z,99.99
2017-10-05T03:50:38.962Z,99.99
2017-10-05T03:51:19.564Z,99.99
2017-10-05T03:52:00.150Z,99.99
2017-10-05T03:52:40.732Z,99.99
2017-10-05T03:53:21.314Z,99.99
2017-10-05T03:54:01.890Z,99.99
2017-10-05T03:54:53.052Z,99.99
2017-10-05T03:55:33.633Z,99.99
2017-10-05T03:56:14.213Z,99.99
2017-10-05T03:56:54.788Z,99.99
2017-10-05T03:57:35.375Z,99.99
2017-10-05T03:58:15.944Z,99.99
2017-10-05T03:58:56.514Z,99.99
2017-10-05T03:59:37.098Z,99.99
2017-10-05T04:00:17.686Z,99.99
2017-10-05T04:00:58.265Z,99.99
2017-10-05T04:01:38.844Z,99.99
2017-10-05T04:02:19.420Z,99.99
2017-10-05T04:03:00.021Z,99.99
2017-10-05T04:03:40.575Z,99.99
2017-10-05T04:04:21.155Z,99.99
2017-10-05T04:05:01.754Z,99.99
2017-10-05T04:05:42.320Z,99.99
2017-10-05T04:06:22.899Z,99.99
2017-10-05T04:07:03.483Z,99.99
2017-10-05T04:07:44.065Z,99.99
2017-10-05T04:08:24.646Z,99.99
2017-10-05T04:09:05.230Z,99.99
2017-10-05T04:09:45.811Z,99.99
2017-10-05T04:10:26.394Z,99.99
2017-10-05T04:11:06.968Z,99.99
2017-10-05T04:11:47.538Z,99.99
2017-10-05T04:12:28.116Z,99.99
2017-10-05T04:13:08.696Z,99.99
2017-10-05T04:13:49.276Z,99.99
2017-10-05T04:14:29.854Z,99.99
2017-10-05T04:15:10.420Z,99.99
2017-10-05T04:15:51.006Z,99.99
2017-10-05T04:16:31.588Z,99.99
2017-10-05T04:18:49.542Z,99.99
2017-10-05T04:21:07.447Z,99.99
2017-10-05T04:21:48.040Z,99.99
2017-10-05T04:22:28.622Z,99.99
2017-10-05T04:23:09.201Z,99.99
2017-10-05T04:23:49.792Z,99.99
2017-10-05T04:24:30.381Z,99.99
2017-10-05T04:25:10.961Z,99.99
2017-10-05T04:25:51.547Z,99.99
2017-10-05T04:28:09.505Z,99.99
2017-10-05T04:28:50.086Z,99.99
2017-10-05T04:29:30.663Z,99.99
2017-10-05T04:30:11.239Z,99.99
2017-10-05T04:30:51.813Z,99.99
2017-10-05T04:31:32.396Z,99.99
2017-10-05T04:32:12.962Z,99.99
2017-10-05T04:32:53.528Z,99.99
2017-10-05T04:33:34.107Z,99.99
2017-10-05T04:34:14.677Z,99.99
2017-10-05T04:34:55.256Z,99.99
2017-10-05T04:35:35.833Z,99.99
2017-10-05T04:36:16.411Z,99.99
2017-10-05T04:36:56.987Z,99.99
2017-10-05T04:37:37.569Z,99.99
2017-10-05T04:38:18.143Z,99.99
2017-10-05T04:38:58.718Z,99.99
2017-10-05T04:39:39.294Z,99.99
2017-10-05T04:40:19.876Z,99.99
2017-10-05T04:41:00.454Z,99.99
2017-10-05T04:41:41.045Z,99.99
2017-10-05T04:42:21.624Z,99.99
2017-10-05T04:43:02.197Z,99.99
2017-10-05T04:43:42.779Z,99.99
2017-10-05T04:44:23.359Z,99.99
2017-10-05T04:45:03.934Z,99.99
2017-10-05T04:45:44.520Z,99.99
2017-10-05T04:46:25.091Z,99.99
2017-10-05T04:48:12.615Z,99.99
2017-10-05T04:48:53.185Z,99.99
2017-10-05T04:49:33.765Z,99.99
2017-10-05T04:50:14.338Z,99.99
2017-10-05T04:50:54.918Z,99.99
2017-10-05T04:51:35.493Z,99.99
2017-10-05T04:52:16.062Z,99.99
2017-10-05T04:52:56.644Z,99.99
2017-10-05T04:53:37.223Z,99.99
2017-10-05T04:54:17.806Z,99.99
2017-10-05T04:54:58.385Z,99.99
2017-10-05T04:55:38.955Z,99.99
2017-10-05T04:56:19.545Z,99.99
2017-10-05T04:57:00.116Z,99.99
2017-10-05T04:57:40.692Z,99.99
2017-10-05T04:58:21.277Z,99.99
2017-10-05T04:59:01.859Z,99.99
2017-10-05T04:59:42.442Z,99.99
2017-10-05T05:00:23.027Z,99.99
2017-10-05T05:01:03.597Z,99.99
2017-10-05T05:01:44.172Z,99.99
2017-10-05T05:02:24.755Z,99.99
2017-10-05T05:03:05.329Z,99.99
2017-10-05T05:03:45.904Z,99.99
2017-10-05T05:04:26.496Z,99.99
2017-10-05T05:05:07.070Z,99.99
2017-10-05T05:05:47.656Z,99.99
2017-10-05T05:06:28.235Z,99.99
2017-10-05T05:07:08.807Z,99.99
2017-10-05T05:07:49.390Z,99.99
2017-10-05T05:08:29.973Z,99.99
2017-10-05T05:09:10.554Z,99.99
2017-10-05T05:09:51.132Z,99.99
2017-10-05T05:10:31.702Z,99.99
2017-10-05T05:11:12.288Z,99.99
2017-10-05T05:11:52.865Z,99.99
2017-10-05T05:12:48.371Z,99.99
2017-10-05T05:13:28.945Z,99.99
2017-10-05T05:14:09.531Z,99.99
2017-10-05T05:14:50.107Z,99.99
2017-10-05T05:15:30.691Z,99.99
2017-10-05T05:16:11.278Z,99.99
2017-10-05T05:16:51.838Z,99.99
2017-10-05T05:17:32.418Z,99.99
2017-10-05T05:18:12.998Z,99.99
2017-10-05T05:18:53.580Z,99.99
2017-10-05T05:19:34.159Z,99.99
2017-10-05T05:20:14.744Z,99.99
2017-10-05T05:20:55.326Z,99.99
2017-10-05T05:21:35.905Z,99.99
2017-10-05T05:23:28.526Z,99.99
2017-10-05T05:24:09.112Z,99.99
2017-10-05T05:24:49.690Z,99.99
2017-10-05T05:25:30.270Z,99.99
2017-10-05T05:26:10.850Z,99.99
2017-10-05T05:26:51.428Z,99.99
2017-10-05T05:27:32.003Z,99.99
2017-10-05T05:28:12.589Z,99.99
2017-10-05T05:28:53.166Z,99.99
2017-10-05T05:29:48.293Z,99.99
2017-10-05T05:30:28.867Z,99.99
2017-10-05T05:31:09.463Z,99.99
2017-10-05T05:31:50.024Z,99.99
2017-10-05T05:32:30.604Z,99.99
2017-10-05T05:33:11.185Z,99.99
2017-10-05T05:33:51.738Z,99.99
2017-10-05T05:34:32.322Z,99.99
2017-10-05T05:35:12.904Z,99.99
2017-10-05T05:35:53.480Z,99.99
2017-10-05T05:36:34.059Z,99.99
2017-10-05T05:37:14.642Z,99.99
2017-10-05T05:37:55.219Z,99.99
2017-10-05T05:38:35.797Z,99.99
2017-10-05T05:39:16.381Z,99.99
2017-10-05T05:39:56.965Z,99.99
2017-10-05T05:40:37.542Z,99.99
2017-10-05T05:41:18.122Z,99.99
2017-10-05T05:41:58.699Z,99.99
2017-10-05T05:42:39.282Z,99.99
2017-10-05T05:43:19.857Z,99.99
2017-10-05T05:44:00.435Z,99.99
2017-10-05T05:44:41.015Z,99.99
2017-10-05T05:45:21.592Z,99.99
2017-10-05T05:46:02.178Z,99.99
2017-10-05T05:46:42.739Z,99.99
2017-10-05T05:47:23.320Z,99.99
2017-10-05T05:48:03.908Z,99.99
2017-10-05T05:48:44.491Z,99.99
2017-10-05T05:49:25.069Z,99.99
2017-10-05T05:50:05.652Z,99.99
2017-10-05T05:50:46.227Z,99.99
2017-10-05T05:51:26.811Z,99.99
2017-10-05T05:52:07.388Z,99.99
2017-10-05T05:52:47.972Z,99.99
2017-10-05T05:53:28.550Z,99.99
2017-10-05T05:54:09.125Z,99.99
2017-10-05T05:54:49.727Z,99.99
2017-10-05T05:55:30.276Z,99.99
2017-10-05T05:56:10.860Z,99.99
2017-10-05T05:56:51.438Z,99.99
2017-10-05T05:57:32.018Z,99.99
2017-10-05T05:58:12.596Z,99.99
2017-10-05T05:58:53.179Z,99.99
2017-10-05T05:59:33.763Z,99.99
2017-10-05T06:00:14.344Z,99.8
2017-10-05T06:00:54.933Z,99.71
2017-10-05T06:01:35.508Z,99.08
2017-10-05T06:02:16.100Z,98.99
2017-10-05T06:02:56.699Z,98.32
2017-10-05T06:03:37.275Z,97.85
2017-10-05T06:04:17.858Z,97.56
2017-10-05T06:04:58.450Z,97.27
2017-10-05T06:05:39.023Z,96.89
2017-10-05T06:06:19.608Z,97.18
2017-10-05T06:07:00.190Z,96.46
2017-10-05T06:07:40.772Z,96.66
2017-10-05T06:08:21.358Z,96.37
2017-10-05T06:09:01.936Z,95.7
2017-10-05T06:09:42.506Z,96.17
2017-10-05T06:10:23.092Z,94.74
2017-10-05T06:11:03.677Z,94.36
2017-10-05T06:11:59.997Z,94.46
2017-10-05T06:12:40.578Z,94.07
2017-10-05T06:13:21.160Z,93.7
2017-10-05T06:14:01.734Z,94.27
2017-10-05T06:14:42.309Z,93.98
2017-10-05T06:15:22.896Z,93.79
2017-10-05T06:16:03.477Z,93.74
2017-10-05T06:16:44.050Z,93.55
2017-10-05T06:17:26.698Z,92.59
2017-10-05T06:18:07.280Z,92.79
2017-10-05T06:18:47.843Z,92.59
2017-10-05T06:19:28.423Z,92.21
2017-10-05T06:20:09.003Z,92.59
2017-10-05T06:20:49.584Z,92.59
2017-10-05T06:21:30.163Z,92.21
2017-10-05T06:22:10.753Z,92.69
2017-10-05T06:22:51.323Z,92.21
2017-10-05T06:23:31.903Z,93.12
2017-10-05T06:24:12.480Z,92.45
2017-10-05T06:24:53.059Z,92.55
2017-10-05T06:25:33.636Z,91.78
2017-10-05T06:26:14.216Z,91.69
2017-10-05T06:26:54.789Z,91.93
2017-10-05T06:27:35.376Z,91.21
2017-10-05T06:28:15.954Z,91.59
2017-10-05T06:28:56.542Z,91.93
2017-10-05T06:29:37.131Z,90.78
2017-10-05T06:30:17.705Z,90.01
2017-10-05T06:30:58.292Z,90.2
2017-10-05T06:31:38.872Z,89.92
2017-10-05T06:32:19.456Z,89.15
2017-10-05T06:33:00.030Z,89.06
2017-10-05T06:33:40.607Z,88.72
2017-10-05T06:34:21.181Z,87.66
2017-10-05T06:35:01.757Z,86.23
2017-10-05T06:35:42.337Z,86.8
2017-10-05T06:36:22.918Z,85.94
2017-10-05T06:37:03.503Z,85.66
2017-10-05T06:37:44.083Z,85.75
2017-10-05T06:38:24.666Z,85.75
2017-10-05T06:39:05.239Z,85.18
2017-10-05T06:39:45.813Z,85.18
2017-10-05T06:40:26.391Z,84.7
2017-10-05T06:41:06.959Z,85.38
2017-10-05T06:41:47.534Z,85.57
2017-10-05T06:42:28.106Z,84.89
2017-10-05T06:43:08.694Z,85.38
2017-10-05T06:43:49.279Z,84.99
2017-10-05T06:44:29.863Z,83.84
2017-10-05T06:45:10.439Z,83.6
2017-10-05T06:45:51.012Z,83.4
2017-10-05T06:46:31.591Z,81.97
2017-10-05T06:47:12.159Z,81.88
2017-10-05T06:47:52.742Z,82.54
2017-10-05T06:48:33.322Z,81.88
2017-10-05T06:49:13.890Z,81.3
2017-10-05T06:49:54.470Z,80.44
2017-10-05T06:50:35.052Z,80.19
2017-10-05T06:51:15.635Z,80.06
2017-10-05T06:51:56.212Z,79.87
2017-10-05T06:52:36.799Z,80.67
2017-10-05T06:53:17.375Z,80.58
2017-10-05T06:53:57.947Z,80.38
2017-10-05T06:54:38.516Z,78.95
2017-10-05T06:55:19.100Z,79.33
2017-10-05T06:55:59.685Z,79.62
2017-10-05T06:56:40.260Z,79.14
2017-10-05T06:57:20.839Z,79.33
2017-10-05T06:58:01.418Z,78.38
2017-10-05T06:58:42.000Z,79
2017-10-05T06:59:23.305Z,80.44
2017-10-05T07:00:03.885Z,79
2017-10-05T07:00:44.472Z,78.91
2017-10-05T07:01:25.063Z,79.2
2017-10-05T07:02:05.638Z,79.58
2017-10-05T07:02:46.210Z,79.58
2017-10-05T07:03:26.787Z,79.87
2017-10-05T07:04:07.365Z,79.49
2017-10-05T07:04:47.945Z,79.58
2017-10-05T07:05:29.119Z,79.43
2017-10-05T07:06:09.690Z,76.39
2017-10-05T07:06:50.277Z,72.53
2017-10-05T07:07:30.860Z,70.03
2017-10-05T07:08:11.538Z,70.61
2017-10-05T07:08:52.122Z,70.29
2017-10-05T07:09:32.704Z,70.86
2017-10-05T07:10:15.120Z,70.86
2017-10-05T07:10:55.707Z,70.38
2017-10-05T07:11:36.289Z,71.15
2017-10-05T07:12:16.872Z,69.01
2017-10-05T07:12:57.457Z,66.3
2017-10-05T07:13:38.037Z,63.12
2017-10-05T07:14:18.624Z,59.94
2017-10-05T07:14:59.199Z,58.53
2017-10-05T07:15:39.775Z,58.4
2017-10-05T07:16:20.446Z,56.33
2017-10-05T07:17:01.028Z,54.02
2017-10-05T07:17:41.604Z,53.08
2017-10-05T07:18:22.181Z,52.23
2017-10-05T07:19:02.755Z,50.43
2017-10-05T07:19:43.336Z,49.97
2017-10-05T07:20:23.919Z,49
2017-10-05T07:21:04.509Z,49
2017-10-05T07:21:45.094Z,47.77
2017-10-05T07:22:25.677Z,46.63
2017-10-05T07:23:06.251Z,45.66
2017-10-05T07:28:16.157Z,43.37
2017-10-05T07:28:56.752Z,43.17
2017-10-05T07:29:37.328Z,43.17
2017-10-05T07:30:17.916Z,42.96
2017-10-05T07:30:58.497Z,43.8
2017-10-05T07:31:39.068Z,44.67
2017-10-05T07:32:19.645Z,44.87
2017-10-05T07:33:00.234Z,44.77
2017-10-05T07:33:40.822Z,44.31
2017-10-05T07:34:21.399Z,43.68
2017-10-05T07:35:01.983Z,42.2
2017-10-05T07:35:42.549Z,41.62
2017-10-05T07:36:23.149Z,41.74
2017-10-05T07:37:03.735Z,41.64
2017-10-05T07:37:44.309Z,41.27
2017-10-05T07:38:40.515Z,39.62
2017-10-05T07:39:21.096Z,40.77
2017-10-05T07:40:01.679Z,41.04
2017-10-05T07:40:42.273Z,40.48
2017-10-05T07:41:22.858Z,41.33
2017-10-05T07:42:03.462Z,40.75
2017-10-05T07:42:44.038Z,41.06
2017-10-05T07:43:24.632Z,40
2017-10-05T07:44:05.218Z,39.82
2017-10-05T07:44:45.810Z,39.9
2017-10-05T07:45:26.400Z,39.8
2017-10-05T07:46:06.986Z,40
2017-10-05T07:46:47.577Z,41
2017-10-05T07:47:28.169Z,42.35
2017-10-05T07:48:08.745Z,42.74
2017-10-05T07:48:49.325Z,42.74
2017-10-05T07:49:29.899Z,42.37
2017-10-05T07:50:10.499Z,42.16
2017-10-05T07:50:51.087Z,43.32
2017-10-05T07:51:31.656Z,42.83
2017-10-05T07:52:12.240Z,43.24
2017-10-05T07:52:52.829Z,42.68
2017-10-05T07:53:33.423Z,42
2017-10-05T07:54:14.006Z,41.35
2017-10-05T07:54:54.591Z,40
2017-10-05T07:55:35.175Z,40.19
2017-10-05T07:56:15.766Z,40.38
2017-10-05T07:56:56.357Z,39.84
2017-10-05T07:57:36.938Z,39.37
2017-10-05T07:58:17.530Z,39.08
2017-10-05T07:58:58.115Z,38.04
2017-10-05T07:59:38.706Z,37.66
2017-10-05T08:00:19.313Z,37.76
2017-10-05T08:00:59.896Z,36.79
2017-10-05T08:01:40.488Z,36.87
2017-10-05T08:02:21.075Z,37.28
2017-10-05T08:03:01.677Z,36.99
2017-10-05T08:03:42.257Z,37.1
2017-10-05T08:04:22.850Z,36.21
2017-10-05T08:05:03.443Z,36.5
2017-10-05T08:05:44.034Z,36.89
2017-10-05T08:06:24.621Z,36.4
2017-10-05T08:07:05.213Z,36.02
2017-10-05T08:09:00.284Z,37.05
2017-10-05T08:09:40.869Z,37.65
2017-10-05T08:10:21.464Z,36.99
2017-10-05T08:11:02.056Z,36.04
2017-10-05T08:11:42.639Z,35.06
2017-10-05T08:12:23.233Z,35.72
2017-10-05T08:13:03.820Z,35.72
2017-10-05T08:13:44.414Z,36.69
2017-10-05T08:15:37.069Z,36.54
2017-10-05T08:16:17.651Z,37.21
2017-10-05T08:16:58.239Z,37.88
2017-10-05T08:17:38.830Z,37.71
2017-10-05T08:18:19.414Z,37.32
2017-10-05T08:19:00.009Z,37.41
2017-10-05T08:20:52.662Z,36.21
2017-10-05T08:21:33.256Z,35.35
2017-10-05T08:22:13.845Z,34.9
2017-10-05T08:22:54.428Z,34.52
2017-10-05T08:23:35.027Z,33.53
2017-10-05T08:24:15.625Z,34.54
2017-10-05T08:24:56.216Z,35.78
2017-10-05T08:25:36.815Z,36.27
2017-10-05T08:26:17.410Z,36.89
2017-10-05T08:26:57.993Z,35.92
2017-10-05T08:27:38.588Z,35.51
2017-10-05T08:28:19.155Z,35.69
2017-10-05T08:28:59.753Z,36.18
2017-10-05T08:29:40.343Z,35.98
2017-10-05T08:30:20.929Z,35.51
2017-10-05T08:31:01.518Z,36.6
2017-10-05T08:31:42.114Z,35.84
2017-10-05T08:32:22.690Z,34.22
2017-10-05T08:33:03.276Z,33.23
2017-10-05T08:33:43.868Z,33.61
2017-10-05T08:34:24.447Z,33.76
2017-10-05T08:35:05.036Z,34.56
2017-10-05T08:35:45.627Z,35.14
2017-10-05T08:36:26.219Z,34.27
2017-10-05T08:37:06.811Z,33.69
2017-10-05T08:37:47.399Z,34.14
2017-10-05T08:38:27.991Z,35.3
2017-10-05T08:39:08.581Z,34.51
2017-10-05T08:39:49.160Z,35.71
2017-10-05T08:40:29.754Z,35.11
2017-10-05T08:41:10.339Z,35.41
2017-10-05T08:41:50.933Z,34.36
2017-10-05T08:42:31.526Z,34.25
2017-10-05T08:43:12.117Z,33.67
2017-10-05T08:43:52.714Z,34.95
2017-10-05T08:44:33.313Z,33.7
2017-10-05T08:45:13.917Z,33.04
2017-10-05T08:45:54.514Z,31.7
2017-10-05T08:46:35.119Z,31.77
2017-10-05T08:47:15.687Z,32.44
2017-10-05T08:47:56.276Z,31.97
2017-10-05T08:48:36.869Z,31.77
2017-10-05T08:49:17.458Z,32.62
2017-10-05T08:49:58.051Z,33.41
2017-10-05T08:50:38.644Z,31.74
2017-10-05T08:51:19.237Z,32.82
2017-10-05T08:51:59.828Z,31.55
2017-10-05T08:52:40.423Z,31.84
2017-10-05T08:53:21.010Z,32.18
2017-10-05T08:54:01.606Z,33.44
2017-10-05T08:54:42.194Z,33.64
2017-10-05T08:55:22.786Z,33.44
2017-10-05T08:56:03.382Z,32.6
2017-10-05T08:56:43.972Z,32.99
2017-10-05T08:57:24.552Z,32.23
2017-10-05T08:58:05.140Z,31.63
2017-10-05T08:58:45.734Z,32.21
2017-10-05T08:59:26.330Z,32.59
2017-10-05T09:00:06.928Z,31.71
2017-10-05T09:00:47.514Z,31.92
2017-10-05T09:01:28.122Z,31.47
2017-10-05T09:02:08.708Z,30.77
2017-10-05T09:02:49.296Z,30.66